createdAt,value
2023-05-08T00:01:57.435Z,15.29
2023-05-08T00:04:23.980Z,15.29
2023-05-08T00:06:51.601Z,15.30
2023-05-08T00:09:18.053Z,15.29
2023-05-08T00:11:44.405Z,15.30
2023-05-08T00:14:10.822Z,15.30
2023-05-08T00:16:37.460Z,15.31
2023-05-08T00:19:03.903Z,15.31
2023-05-08T00:21:31.142Z,15.32
2023-05-08T00:23:57.490Z,15.32
2023-05-08T00:26:23.862Z,15.34
2023-05-08T00:28:50.216Z,15.34
2023-05-08T00:31:16.578Z,15.35
2023-05-08T00:33:43.003Z,15.36
2023-05-08T00:36:09.754Z,15.37
2023-05-08T00:38:37.094Z,15.39
2023-05-08T00:41:04.336Z,15.37
2023-05-08T00:43:30.873Z,15.40
2023-05-08T00:46:00.411Z,15.41
2023-05-08T00:48:33.906Z,15.44
2023-05-08T00:51:02.383Z,15.44
2023-05-08T00:53:32.807Z,15.44
2023-05-08T00:56:00.078Z,15.45
2023-05-08T00:58:27.425Z,15.46
2023-05-08T01:00:56.116Z,15.47
2023-05-08T01:03:24.040Z,15.47
2023-05-08T01:05:50.720Z,15.46
2023-05-08T01:08:17.213Z,15.45
2023-05-08T01:11:14.511Z,15.47
2023-05-08T01:14:02.940Z,15.47
2023-05-08T01:16:38.692Z,15.47
2023-05-08T01:19:32.467Z,15.47
2023-05-08T01:22:43.680Z,15.47
2023-05-08T01:25:28.733Z,15.46
2023-05-08T01:28:21.891Z,15.47
2023-05-08T01:31:10.155Z,15.46
2023-05-08T01:33:48.735Z,15.46
2023-05-08T01:36:29.099Z,15.45
2023-05-08T01:39:12.235Z,15.44
2023-05-08T01:41:41.152Z,15.43
2023-05-08T01:44:23.851Z,15.43
2023-05-08T01:46:52.117Z,15.43
2023-05-08T01:49:34.233Z,15.43
2023-05-08T01:52:10.486Z,15.43
2023-05-08T01:54:44.511Z,15.42
2023-05-08T01:57:13.326Z,15.39
2023-05-08T01:59:42.927Z,15.40
2023-05-08T02:02:10.333Z,15.36
2023-05-08T02:04:38.248Z,15.34
2023-05-08T02:07:05.137Z,15.34
2023-05-08T02:09:32.249Z,15.33
2023-05-08T02:12:01.122Z,15.32
2023-05-08T02:14:28.830Z,15.30
2023-05-08T02:16:57.746Z,15.28
2023-05-08T02:19:25.813Z,15.26
2023-05-08T02:21:53.321Z,15.23
2023-05-08T02:24:21.070Z,15.22
2023-05-08T02:26:48.845Z,15.18
2023-05-08T02:29:16.927Z,15.15
2023-05-08T02:31:45.947Z,15.12
2023-05-08T02:34:12.654Z,15.09
2023-05-08T02:36:41.021Z,15.07
2023-05-08T02:39:11.210Z,15.05
2023-05-08T02:41:40.654Z,15.03
2023-05-08T02:44:07.419Z,15.01
2023-05-08T02:46:36.448Z,15.01
2023-05-08T02:49:29.061Z,14.99
2023-05-08T02:52:13.697Z,14.98
2023-05-08T02:54:44.065Z,14.94
2023-05-08T02:57:43.538Z,14.93
2023-05-08T03:00:20.638Z,14.91
2023-05-08T03:03:12.151Z,14.88
2023-05-08T03:05:43.019Z,14.84
2023-05-08T03:08:20.804Z,14.82
2023-05-08T03:10:51.606Z,14.78
2023-05-08T03:13:20.995Z,14.76
2023-05-08T03:15:57.471Z,14.73
2023-05-08T03:18:31.008Z,14.70
2023-05-08T03:21:00.197Z,14.68
2023-05-08T03:23:29.376Z,14.65
2023-05-08T03:25:58.772Z,14.62
2023-05-08T03:28:26.235Z,14.59
2023-05-08T03:30:54.031Z,14.57
2023-05-08T03:33:23.306Z,14.56
2023-05-08T03:35:50.990Z,14.55
2023-05-08T03:38:17.457Z,14.55
2023-05-08T03:40:45.301Z,14.55
2023-05-08T03:43:12.086Z,14.54
2023-05-08T03:45:40.287Z,14.53
2023-05-08T03:48:08.607Z,14.52
2023-05-08T03:50:36.455Z,14.52
2023-05-08T03:53:03.308Z,14.53
2023-05-08T03:55:33.122Z,14.54
2023-05-08T03:58:17.474Z,14.56
2023-05-08T04:00:50.444Z,14.57
2023-05-08T04:03:24.811Z,14.58
2023-05-08T04:06:08.086Z,14.57
2023-05-08T04:08:45.248Z,14.55
2023-05-08T04:11:30.454Z,14.52
2023-05-08T04:14:07.045Z,14.50
2023-05-08T04:16:39.560Z,14.47
2023-05-08T04:19:28.815Z,14.46
2023-05-08T04:21:59.368Z,14.45
2023-05-08T04:24:29.015Z,14.44
2023-05-08T04:26:55.962Z,14.42
2023-05-08T04:29:23.045Z,14.41
2023-05-08T04:31:50.981Z,14.39
2023-05-08T04:34:18.362Z,14.39
2023-05-08T04:36:44.697Z,14.38
2023-05-08T04:39:11.106Z,14.38
2023-05-08T04:41:37.590Z,14.40
2023-05-08T04:44:04.580Z,14.40
2023-05-08T04:46:31.087Z,14.41
2023-05-08T04:48:57.583Z,14.45
2023-05-08T04:51:24.068Z,14.46
2023-05-08T04:53:50.624Z,14.49
2023-05-08T04:56:16.985Z,14.50
2023-05-08T04:58:43.399Z,14.53
2023-05-08T05:01:09.846Z,14.58
2023-05-08T05:03:36.729Z,14.63
2023-05-08T05:06:03.333Z,14.69
2023-05-08T05:08:29.748Z,14.78
2023-05-08T05:10:56.196Z,14.87
2023-05-08T05:13:22.732Z,15.00
2023-05-08T05:15:51.376Z,15.09
2023-05-08T05:18:18.284Z,15.21
2023-05-08T05:20:44.795Z,15.30
2023-05-08T05:23:11.951Z,15.40
2023-05-08T05:25:38.666Z,15.48
2023-05-08T05:28:05.229Z,15.53
2023-05-08T05:30:31.879Z,15.60
2023-05-08T05:32:58.785Z,15.65
2023-05-08T05:35:25.760Z,15.70
2023-05-08T05:37:52.276Z,15.75
2023-05-08T05:40:18.724Z,15.79
2023-05-08T05:42:49.876Z,15.85
2023-05-08T05:45:16.309Z,15.88
2023-05-08T05:47:49.956Z,15.95
2023-05-08T05:50:18.395Z,15.97
2023-05-08T05:52:44.852Z,16.02
2023-05-08T05:55:11.851Z,16.07
2023-05-08T05:57:38.590Z,16.13
2023-05-08T06:00:06.305Z,16.19
2023-05-08T06:02:35.484Z,16.28
2023-05-08T06:05:02.405Z,16.36
2023-05-08T06:07:28.865Z,16.43
2023-05-08T06:09:56.112Z,16.49
2023-05-08T06:12:22.648Z,16.57
2023-05-08T06:14:51.729Z,16.63
2023-05-08T06:17:18.988Z,16.69
2023-05-08T06:19:55.950Z,16.75
2023-05-08T06:22:24.141Z,16.81
2023-05-08T06:24:54.383Z,16.89
2023-05-08T06:27:22.038Z,16.96
2023-05-08T06:29:51.651Z,17.04
2023-05-08T06:32:18.338Z,17.13
2023-05-08T06:34:45.322Z,17.20
2023-05-08T06:37:11.748Z,17.27
2023-05-08T06:39:38.209Z,17.33
2023-05-08T06:42:08.613Z,17.41
2023-05-08T06:44:35.573Z,17.48
2023-05-08T06:47:02.129Z,17.55
2023-05-08T06:49:28.769Z,17.62
2023-05-08T06:51:57.717Z,17.67
2023-05-08T06:54:24.397Z,17.73
2023-05-08T06:56:52.762Z,17.78
2023-05-08T06:59:19.188Z,17.83
2023-05-08T07:01:45.729Z,17.87
2023-05-08T07:04:13.022Z,17.90
2023-05-08T07:06:39.441Z,17.94
2023-05-08T07:09:05.874Z,17.97
2023-05-08T07:11:32.306Z,17.99
2023-05-08T07:13:58.837Z,18.05
2023-05-08T07:16:25.301Z,18.09
2023-05-08T07:18:53.033Z,18.12
2023-05-08T07:21:21.382Z,18.16
2023-05-08T07:23:50.297Z,18.18
2023-05-08T07:26:16.716Z,18.20
2023-05-08T07:28:43.171Z,18.23
2023-05-08T07:31:10.213Z,18.28
2023-05-08T07:33:36.639Z,18.33
2023-05-08T07:36:03.181Z,18.40
2023-05-08T07:38:29.619Z,18.47
2023-05-08T07:40:57.535Z,18.53
2023-05-08T07:43:24.277Z,18.59
2023-05-08T07:45:50.680Z,18.63
2023-05-08T07:48:17.185Z,18.69
2023-05-08T07:50:44.560Z,18.72
2023-05-08T07:53:11.127Z,18.76
2023-05-08T07:55:37.607Z,18.78
2023-05-08T07:58:03.991Z,18.83
2023-05-08T08:00:30.395Z,18.88
2023-05-08T08:02:57.408Z,18.93
2023-05-08T08:05:24.058Z,18.99
2023-05-08T08:07:50.516Z,19.05
2023-05-08T08:10:17.100Z,19.14
2023-05-08T08:12:43.510Z,19.23
2023-05-08T08:15:10.336Z,19.34
2023-05-08T08:17:37.643Z,19.46
2023-05-08T08:20:04.714Z,19.59
2023-05-08T08:22:31.078Z,19.72
2023-05-08T08:24:57.714Z,19.85
2023-05-08T08:27:24.141Z,19.97
2023-05-08T08:29:52.514Z,20.13
2023-05-08T08:32:25.228Z,20.26
2023-05-08T08:34:51.769Z,20.38
2023-05-08T08:37:18.169Z,20.50
2023-05-08T08:39:44.617Z,20.64
2023-05-08T08:42:12.187Z,20.77
2023-05-08T08:44:40.161Z,20.90
2023-05-08T08:47:10.761Z,21.08
2023-05-08T08:49:42.892Z,21.23
2023-05-08T08:52:22.615Z,21.39
2023-05-08T08:54:50.402Z,21.54
2023-05-08T08:57:18.978Z,21.68
2023-05-08T08:59:45.645Z,21.79
2023-05-08T09:02:17.583Z,21.89
2023-05-08T09:04:44.311Z,21.99
2023-05-08T09:07:12.081Z,22.07
2023-05-08T09:09:44.403Z,22.14
2023-05-08T09:12:13.077Z,22.23
2023-05-08T09:14:39.507Z,22.28
2023-05-08T09:17:06.107Z,22.37
2023-05-08T09:19:33.538Z,22.43
2023-05-08T09:22:00.898Z,22.50
2023-05-08T09:24:54.737Z,22.64
2023-05-08T09:27:22.576Z,22.72
2023-05-08T09:30:04.511Z,22.83
2023-05-08T09:32:32.453Z,22.89
2023-05-08T09:34:59.688Z,22.96
2023-05-08T09:37:27.426Z,23.03
2023-05-08T09:39:54.654Z,23.08
2023-05-08T09:42:21.364Z,23.14
2023-05-08T09:44:52.944Z,23.21
2023-05-08T09:47:22.278Z,23.27
2023-05-08T09:50:03.215Z,23.36
2023-05-08T09:52:30.910Z,23.40
2023-05-08T09:55:02.146Z,23.46
2023-05-08T09:57:30.275Z,23.49
2023-05-08T10:00:05.912Z,23.53
2023-05-08T10:02:32.910Z,23.56
2023-05-08T10:04:59.338Z,23.61
2023-05-08T10:07:33.378Z,23.72
2023-05-08T10:10:07.023Z,23.86
2023-05-08T10:12:33.709Z,24.02
2023-05-08T10:15:00.719Z,24.18
2023-05-08T10:17:53.469Z,24.36
2023-05-08T10:20:21.721Z,24.50
2023-05-08T10:22:48.931Z,24.64
2023-05-08T10:25:17.683Z,24.77
2023-05-08T10:28:13.216Z,24.91
2023-05-08T10:30:50.552Z,25.05
2023-05-08T10:33:21.518Z,25.15
2023-05-08T10:35:48.100Z,25.25
2023-05-08T10:38:16.405Z,25.34
2023-05-08T10:40:43.168Z,25.42
2023-05-08T10:43:10.708Z,25.48
2023-05-08T10:45:37.917Z,25.55
2023-05-08T10:48:25.584Z,25.64
2023-05-08T10:51:02.819Z,25.77
2023-05-08T10:53:47.945Z,25.91
2023-05-08T10:56:14.367Z,25.99
2023-05-08T10:58:40.848Z,26.04
2023-05-08T11:01:07.914Z,26.10
2023-05-08T11:03:43.395Z,26.21
2023-05-08T11:06:10.096Z,26.28
2023-05-08T11:08:50.625Z,26.39
2023-05-08T11:11:30.263Z,26.50
2023-05-08T11:14:11.930Z,26.57
2023-05-08T11:17:03.704Z,26.68
2023-05-08T11:19:30.854Z,26.73
2023-05-08T11:22:14.542Z,26.82
2023-05-08T11:24:48.563Z,26.86
2023-05-08T11:27:15.845Z,26.88
2023-05-08T11:29:42.373Z,26.88
2023-05-08T11:32:08.766Z,26.89
2023-05-08T11:34:44.678Z,26.89
2023-05-08T11:37:18.302Z,26.92
2023-05-08T11:39:44.764Z,26.91
2023-05-08T11:42:40.596Z,26.90
2023-05-08T11:45:10.629Z,26.89
2023-05-08T11:47:41.243Z,26.87
2023-05-08T11:50:09.297Z,26.87
2023-05-08T11:52:37.123Z,26.88
2023-05-08T11:55:05.117Z,26.91
2023-05-08T11:57:34.964Z,26.92
2023-05-08T12:00:09.861Z,26.95
2023-05-08T12:02:37.054Z,26.95
2023-05-08T12:05:03.903Z,27.00
2023-05-08T12:07:31.272Z,27.04
2023-05-08T12:09:58.756Z,27.13
2023-05-08T12:12:36.828Z,27.26
2023-05-08T12:15:07.357Z,27.36
2023-05-08T12:17:38.217Z,27.41
2023-05-08T12:20:15.715Z,27.46
2023-05-08T12:22:49.483Z,27.47
2023-05-08T12:25:17.446Z,27.47
2023-05-08T12:27:44.877Z,27.45
2023-05-08T12:30:14.040Z,27.44
2023-05-08T12:32:42.353Z,27.44
2023-05-08T12:35:10.183Z,27.44
2023-05-08T12:37:36.741Z,27.45
2023-05-08T12:40:04.198Z,27.49
2023-05-08T12:42:49.686Z,27.56
2023-05-08T12:45:28.018Z,27.63
2023-05-08T12:48:00.321Z,27.70
2023-05-08T12:50:26.926Z,27.76
2023-05-08T12:52:53.508Z,27.78
2023-05-08T12:55:28.124Z,27.84
2023-05-08T12:58:05.950Z,27.87
2023-05-08T13:00:38.209Z,27.91
2023-05-08T13:03:05.420Z,27.97
2023-05-08T13:05:31.959Z,28.05
2023-05-08T13:08:09.141Z,28.16
2023-05-08T13:10:50.210Z,28.27
2023-05-08T13:13:19.195Z,28.35
2023-05-08T13:15:46.150Z,28.42
2023-05-08T13:18:12.816Z,28.49
2023-05-08T13:20:39.686Z,28.54
2023-05-08T13:23:06.475Z,28.54
2023-05-08T13:25:33.040Z,28.54
2023-05-08T13:28:00.306Z,28.50
2023-05-08T13:30:26.843Z,28.46
2023-05-08T13:33:09.215Z,28.41
2023-05-08T13:35:36.081Z,28.36
2023-05-08T13:38:02.793Z,28.32
2023-05-08T13:40:29.734Z,28.26
2023-05-08T13:42:56.101Z,28.24
2023-05-08T13:45:22.902Z,28.23
2023-05-08T13:47:50.008Z,28.25
2023-05-08T13:50:19.305Z,28.29
2023-05-08T13:52:45.770Z,28.39
2023-05-08T13:55:13.689Z,28.50
2023-05-08T13:57:40.696Z,28.59
2023-05-08T14:00:08.924Z,28.66
2023-05-08T14:02:35.784Z,28.72
2023-05-08T14:05:02.193Z,28.75
2023-05-08T14:07:29.899Z,28.76
2023-05-08T14:09:56.363Z,28.78
2023-05-08T14:12:22.873Z,28.77
2023-05-08T14:14:49.293Z,28.77
2023-05-08T14:17:15.709Z,28.75
2023-05-08T14:19:42.257Z,28.72
2023-05-08T14:22:08.733Z,28.71
2023-05-08T14:24:35.310Z,28.73
2023-05-08T14:27:05.610Z,28.74
2023-05-08T14:29:33.161Z,28.77
2023-05-08T14:31:59.620Z,28.79
2023-05-08T14:34:44.408Z,28.82
2023-05-08T14:37:11.496Z,28.85
2023-05-08T14:39:37.834Z,28.85
2023-05-08T14:44:33.599Z,28.80
2023-05-08T14:47:00.028Z,28.76
2023-05-08T14:49:36.555Z,28.71
2023-05-08T14:52:05.531Z,28.64
2023-05-08T14:54:32.103Z,28.58
2023-05-08T14:56:58.795Z,28.52
2023-05-08T14:59:25.239Z,28.45
2023-05-08T15:01:51.693Z,28.40
2023-05-08T15:04:18.220Z,28.36
2023-05-08T15:06:44.856Z,28.32
2023-05-08T15:09:11.252Z,28.28
2023-05-08T15:11:37.695Z,28.23
2023-05-08T15:14:05.338Z,28.16
2023-05-08T15:16:31.861Z,28.13
2023-05-08T15:18:58.327Z,28.11
2023-05-08T15:21:26.715Z,28.08
2023-05-08T15:23:54.982Z,28.07
2023-05-08T15:26:22.676Z,28.04
2023-05-08T15:28:49.477Z,28.05
2023-05-08T15:31:16.187Z,28.07
2023-05-08T15:33:44.960Z,28.11
2023-05-08T15:36:13.380Z,28.18
2023-05-08T15:38:40.989Z,28.28
2023-05-08T15:41:07.851Z,28.37
2023-05-08T15:43:34.221Z,28.47
2023-05-08T15:46:00.670Z,28.58
2023-05-08T15:48:27.172Z,28.69
2023-05-08T15:50:53.589Z,28.81
2023-05-08T15:53:19.931Z,28.96
2023-05-08T15:55:46.410Z,29.15
2023-05-08T15:58:12.781Z,29.33
2023-05-08T16:00:44.717Z,29.49
2023-05-08T16:03:12.251Z,29.64
2023-05-08T16:05:39.407Z,29.71
2023-05-08T16:08:05.988Z,29.75
2023-05-08T16:10:32.344Z,29.77
2023-05-08T16:12:58.804Z,29.74
2023-05-08T16:15:25.472Z,29.69
2023-05-08T16:17:51.808Z,29.62
2023-05-08T16:20:18.197Z,29.54
2023-05-08T16:22:44.638Z,29.47
2023-05-08T16:25:11.055Z,29.41
2023-05-08T16:27:37.589Z,29.35
2023-05-08T16:30:04.308Z,29.26
2023-05-08T16:32:30.758Z,29.16
2023-05-08T16:34:57.266Z,29.03
2023-05-08T16:37:23.706Z,28.88
2023-05-08T16:39:50.080Z,28.72
2023-05-08T16:42:18.779Z,28.55
2023-05-08T16:44:45.326Z,28.36
2023-05-08T16:47:11.802Z,28.17
2023-05-08T16:49:38.411Z,27.97
2023-05-08T16:52:04.742Z,27.77
2023-05-08T16:54:31.184Z,27.57
2023-05-08T16:56:57.758Z,27.38
2023-05-08T16:59:24.186Z,27.22
2023-05-08T17:01:50.600Z,27.12
2023-05-08T17:04:16.967Z,27.05
2023-05-08T17:06:43.336Z,27.01
2023-05-08T17:09:09.805Z,26.99
2023-05-08T17:11:36.189Z,27.00
2023-05-08T17:14:02.681Z,27.03
2023-05-08T17:16:29.143Z,27.12
2023-05-08T17:18:55.728Z,27.28
2023-05-08T17:21:22.164Z,27.47
2023-05-08T17:23:48.628Z,27.71
2023-05-08T17:26:15.117Z,27.95
2023-05-08T17:28:41.724Z,28.17
2023-05-08T17:31:08.134Z,28.36
2023-05-08T17:33:34.537Z,28.47
2023-05-08T17:36:02.275Z,28.52
2023-05-08T17:38:28.630Z,28.54
2023-05-08T17:40:56.304Z,28.48
2023-05-08T17:43:22.896Z,28.40
2023-05-08T17:45:49.312Z,28.30
2023-05-08T17:48:15.698Z,28.16
2023-05-08T17:50:43.499Z,28.06
2023-05-08T17:53:10.001Z,27.93
2023-05-08T17:55:37.043Z,27.81
2023-05-08T17:58:03.482Z,27.67
2023-05-08T18:00:29.841Z,27.50
2023-05-08T18:02:56.255Z,27.34
2023-05-08T18:05:22.866Z,27.13
2023-05-08T18:08:02.523Z,26.93
2023-05-08T18:10:28.948Z,26.71
2023-05-08T18:12:55.434Z,26.50
2023-05-08T18:15:21.837Z,26.30
2023-05-08T18:17:48.315Z,26.08
2023-05-08T18:20:15.891Z,25.89
2023-05-08T18:22:42.310Z,25.71
2023-05-08T18:25:08.825Z,25.54
2023-05-08T18:27:35.352Z,25.38
2023-05-08T18:30:01.993Z,25.25
2023-05-08T18:32:29.052Z,25.12
2023-05-08T18:34:56.741Z,25.00
2023-05-08T18:37:23.202Z,24.88
2023-05-08T18:39:50.005Z,24.76
2023-05-08T18:42:16.409Z,24.67
2023-05-08T18:44:43.905Z,24.56
2023-05-08T18:47:10.237Z,24.46
2023-05-08T18:49:36.710Z,24.38
2023-05-08T18:52:08.487Z,24.28
2023-05-08T18:54:34.885Z,24.18
2023-05-08T18:57:04.990Z,24.07
2023-05-08T18:59:31.375Z,23.97
2023-05-08T19:01:58.113Z,23.87
2023-05-08T19:04:24.501Z,23.80
2023-05-08T19:06:50.899Z,23.72
2023-05-08T19:09:17.273Z,23.66
2023-05-08T19:11:43.637Z,23.60
2023-05-08T19:14:10.865Z,23.56
2023-05-08T19:16:37.272Z,23.49
2023-05-08T19:19:03.642Z,23.43
2023-05-08T19:21:31.899Z,23.38
2023-05-08T19:23:58.251Z,23.33
2023-05-08T19:26:24.647Z,23.29
2023-05-08T19:28:51.081Z,23.23
2023-05-08T19:31:17.584Z,23.19
2023-05-08T19:33:43.993Z,23.16
2023-05-08T19:36:10.418Z,23.12
2023-05-08T19:38:39.967Z,23.09
2023-05-08T19:41:11.481Z,23.08
2023-05-08T19:43:37.897Z,23.04
2023-05-08T19:46:16.825Z,23.00
2023-05-08T19:48:43.251Z,22.95
2023-05-08T19:51:11.434Z,22.91
2023-05-08T19:53:38.132Z,22.87
2023-05-08T19:56:06.780Z,22.83
2023-05-08T19:58:33.274Z,22.81
2023-05-08T20:00:59.725Z,22.76
2023-05-08T20:03:26.348Z,22.71
2023-05-08T20:05:53.817Z,22.67
2023-05-08T20:08:20.471Z,22.62
2023-05-08T20:10:49.741Z,22.58
2023-05-08T20:13:17.650Z,22.54
2023-05-08T20:15:45.359Z,22.50
2023-05-08T20:18:12.232Z,22.45
2023-05-08T20:20:39.199Z,22.41
2023-05-08T20:23:06.078Z,22.36
2023-05-08T20:25:32.777Z,22.31
2023-05-08T20:27:59.709Z,22.24
2023-05-08T20:30:26.487Z,22.18
2023-05-08T20:32:53.019Z,22.13
2023-05-08T20:35:19.732Z,22.06
2023-05-08T20:37:47.579Z,22.00
2023-05-08T20:40:15.152Z,21.92
2023-05-08T20:42:42.097Z,21.85
2023-05-08T20:45:09.486Z,21.78
2023-05-08T20:47:36.152Z,21.73
2023-05-08T20:50:03.145Z,21.65
2023-05-08T20:52:32.069Z,21.59
2023-05-08T20:54:58.881Z,21.53
2023-05-08T20:57:25.863Z,21.47
2023-05-08T20:59:52.268Z,21.41
2023-05-08T21:02:18.761Z,21.35
2023-05-08T21:04:45.299Z,21.31
2023-05-08T21:07:11.885Z,21.24
2023-05-08T21:09:38.302Z,21.20
2023-05-08T21:12:04.829Z,21.16
2023-05-08T21:14:31.303Z,21.10
2023-05-08T21:16:57.757Z,21.07
2023-05-08T21:19:24.157Z,21.01
2023-05-08T21:21:50.689Z,20.95
2023-05-08T21:24:17.137Z,20.88
2023-05-08T21:26:43.472Z,20.82
2023-05-08T21:29:10.821Z,20.75
2023-05-08T21:31:37.325Z,20.69
2023-05-08T21:34:04.166Z,20.61
2023-05-08T21:36:32.056Z,20.56
2023-05-08T21:38:58.459Z,20.51
2023-05-08T21:41:24.934Z,20.46
2023-05-08T21:43:51.269Z,20.42
2023-05-08T21:46:17.687Z,20.38
2023-05-08T21:48:44.081Z,20.35
2023-05-08T21:51:10.437Z,20.31
2023-05-08T21:53:37.045Z,20.28
2023-05-08T21:56:03.521Z,20.26
2023-05-08T21:58:29.864Z,20.23
2023-05-08T22:00:58.383Z,20.21
2023-05-08T22:03:25.228Z,20.18
2023-05-08T22:05:51.762Z,20.15
2023-05-08T22:08:18.148Z,20.13
2023-05-08T22:10:44.684Z,20.11
2023-05-08T22:13:13.189Z,20.08
2023-05-08T22:15:39.750Z,20.08
2023-05-08T22:18:06.154Z,20.04
2023-05-08T22:20:33.260Z,20.02
2023-05-08T22:22:59.660Z,20.00
2023-05-08T22:25:26.613Z,19.98
2023-05-08T22:27:53.181Z,19.95
2023-05-08T22:30:19.655Z,19.97
2023-05-08T22:32:53.124Z,19.95
2023-05-08T22:35:22.245Z,19.93
2023-05-08T22:37:48.605Z,19.91
2023-05-08T22:40:14.955Z,19.88
2023-05-08T22:42:41.914Z,19.85
2023-05-08T22:45:09.030Z,19.82
2023-05-08T22:47:35.563Z,19.80
2023-05-08T22:50:03.496Z,19.78
2023-05-08T22:52:29.845Z,19.76
2023-05-08T22:54:56.189Z,19.73
2023-05-08T22:57:22.632Z,19.73
2023-05-08T22:59:48.966Z,19.72
2023-05-08T23:02:15.302Z,19.70
2023-05-08T23:04:41.765Z,19.70
2023-05-08T23:07:08.154Z,19.70
2023-05-08T23:09:34.499Z,19.69
2023-05-08T23:12:01.041Z,19.69
2023-05-08T23:14:27.410Z,19.69
2023-05-08T23:16:53.776Z,19.69
2023-05-08T23:19:20.217Z,19.69
2023-05-08T23:21:46.579Z,19.68
2023-05-08T23:24:13.017Z,19.67
2023-05-08T23:26:41.932Z,19.66
2023-05-08T23:29:08.674Z,19.65
2023-05-08T23:31:35.114Z,19.64
2023-05-08T23:34:01.836Z,19.62
2023-05-08T23:36:28.205Z,19.61
2023-05-08T23:38:54.565Z,19.59
2023-05-08T23:41:20.974Z,19.58
2023-05-08T23:43:47.369Z,19.56
2023-05-08T23:46:13.869Z,19.54
2023-05-08T23:48:40.396Z,19.52
2023-05-08T23:51:06.764Z,19.53
2023-05-08T23:53:33.090Z,19.52
2023-05-08T23:55:59.568Z,19.51
2023-05-08T23:58:26.248Z,19.50
